Warning: Javascript must be enabled to use all the features on this page!


Page Loading - Please Wait...

Click to hideNews Bulletins

Peak Streamflow for the Nation

USGS 05330000 MINNESOTA RIVER NEAR JORDAN, MN

Carver County, Minnesota
Hydrologic Unit Code 07020012
Latitude  44°41'35", Longitude  93°38'30" NAD27
Drainage area 16,200  square miles
Gage datum 690.08 feet above NAVD88
Output formats
Table
Graph
Tab-separated file
peakfq (watstore) format
Reselect output format
Water
Year
Date Gage
Height
(feet)
Stream-
flow
(cfs)
1935 1935-03-19 7.623 4,010
1936 1936-03-25 22.433 23,200
1937 1937-06-22 12.733 8,310
1938 1938-09-23 13.142,3 8,760
1939 1939-03-25 14.503 8,5001
1940 1940-04-14 7.743 3,560
1941 1941-04-05 17.563 12,300
1942 1942-09-19 14.363 8,400
1943 1943-06-20 22.643 25,900
1944 1944-05-25 22.823 25,100
1945 1945-06-18 20.983 18,200
1946 1946-03-30 18.223 13,900
1947 1947-05-03 21.313 20,400
1948 1948-03-24 22.413 22,000
1949 1949-04-05 23.593 32,600
1950 1950-04-01 18.103 13,300
1951 1951-04-11 28.003 64,100
1952 1952-04-16 28.313 60,600
1953 1953-06-14 21.473 23,000
1954 1954-06-27 13.773 10,300
1955 1955-03-17 14.023 7,650
1956 1956-06-20 16.723 12,800
1957 1957-06-26 25.823 40,800
1958 1958-04-15 12.303 7,640
1959 1959-06-05 8.373 3,880
1960 1960-05-25 24.873 36,400
1961 1961-04-01 18.573 15,700
1962 1962-04-04 25.012,3 39,700
1963 1963-07-28 16.663 14,400
1964 1964-05-18 16.153 12,900
1965 1965-04-11 33.892,3 117,000
1966 1966-04-06 18.872,3 16,200
1967 1967-04-08 22.75 19,400
1968 1968-08-11 20.03 15,7001
1969 1969-04-14 32.85 84,600
1970 1970-04-25 15.09 9,510
1971 1971-03-24   24,1001,2
1972 1972-06-14 21.48 16,800
1973 1973-03-18 23.092 21,900
1974 1974-06-14 19.13 13,900
1975 1975-05-03 23.77 22,900
1976 1976-04-03 11.19 5,490
1977 1977-06-20 12.29 6,610
1978 1978-04-13 19.072 13,800
1979 1979-04-05 25.92 32,600
1980 1980-06-12 19.40 14,200
1981 1981-06-30 17.17 12,400
1982 1982-03-27 21.492 17,300
1983 1983-04-19 26.14 33,700
1984 1984-06-28 27.54 45,300
1985 1985-03-20 25.05 32,300
1986 1986-05-04 26.302 36,700
1987 1987-04-01 14.28 9,270
1988 1988-04-07 10.85 5,560
1989 1989-03-27 18.49 14,800
1990 1990-08-02 20.23 17,000
1991 1991-06-11 25.63 33,300
1992 1992-03-10 24.11 26,200
1993 1993-06-24 33.52 92,200
1994 1994-05-02 23.05 22,400
1995 1995-04-26 24.99 29,700
1996 1996-06-23 24.99 31,500
1997 1997-04-12 32.24 82,300
1998 1998-04-05 25.50 32,300
1999 1999-04-17 24.28 25,200
2000 2000-06-07 19.54 16,900
2001 2001-04-18 33.11 87,100
2002 2002-06-26 20.62 18,300
2003 2003-05-17 19.10 15,900
2004 2004-06-14 25.17 28,500
2005 2005-05-19 23.65 24,500
2006 2006-04-12 26.40 37,400
2007 2007-03-20 25.302 32,800
2008 2008-05-10 22.54 22,100
2009 2009-04-09 20.43 18,400
2010 2010-09-30 33.07 74,700
2011 2011-03-28 31.81 72,300
2012 2012-06-01 22.61 22,300
2013 2013-07-01 26.15 36,300
2014 2014-06-25 33.25 76,600
2015 2015-06-27 17.01 14,100
2016 2016-09-29 26.62 38,700
2017 2017-05-28 24.47 28,700
2018 2018-06-29 29.19 54,800
2019 2019-03-25 32.09 75,300
2020 2020-03-12 26.53 41,500
?
  Peak Gage-Height Qualification Codes.
?
  Peak Streamflow Qualification Codes.